createdAt,value
2022-09-09T00:02:20.882Z,11.25
2022-09-09T00:05:03.034Z,13.50
2022-09-09T00:07:44.477Z,13.00
2022-09-09T00:16:22.202Z,12.50
2022-09-09T00:19:18.689Z,13.00
2022-09-09T00:22:09.715Z,14.50
2022-09-09T00:24:48.663Z,15.50
2022-09-09T00:30:20.377Z,16.00
2022-09-09T00:32:53.626Z,13.00
2022-09-09T00:35:26.648Z,13.50
2022-09-09T00:38:17.676Z,15.00
2022-09-09T00:40:51.402Z,13.25
2022-09-09T00:43:27.429Z,15.25
2022-09-09T00:46:11.980Z,16.25
2022-09-09T00:49:05.004Z,16.00
2022-09-09T00:51:47.254Z,14.50
2022-09-09T00:54:39.675Z,16.25
2022-09-09T00:57:27.717Z,16.00
2022-09-09T01:00:26.138Z,13.25
2022-09-09T01:03:21.578Z,14.50
2022-09-09T01:06:05.894Z,14.00
2022-09-09T01:08:39.332Z,14.25
2022-09-09T01:11:15.579Z,17.00
2022-09-09T01:13:49.132Z,17.75
2022-09-09T01:16:19.780Z,18.50
2022-09-09T01:18:53.088Z,19.50
2022-09-09T01:21:32.549Z,21.75
2022-09-09T01:24:25.069Z,18.50
2022-09-09T01:26:58.256Z,21.00
2022-09-09T01:29:29.731Z,21.00
2022-09-09T01:32:03.319Z,21.00
2022-09-09T01:34:56.904Z,19.25
2022-09-09T01:37:27.201Z,18.25
2022-09-09T01:39:57.644Z,20.25
2022-09-09T01:42:27.924Z,21.00
2022-09-09T01:44:58.515Z,19.75
2022-09-09T01:47:29.438Z,17.75
2022-09-09T01:50:00.614Z,19.00
2022-09-09T01:52:33.061Z,19.50
2022-09-09T01:55:03.643Z,20.50
2022-09-09T01:57:55.030Z,20.50
2022-09-09T02:00:25.954Z,19.25
2022-09-09T02:02:59.196Z,20.75
2022-09-09T02:05:38.352Z,19.00
2022-09-09T02:08:14.426Z,21.00
2022-09-09T02:10:53.849Z,19.75
2022-09-09T02:13:24.383Z,19.50
2022-09-09T02:16:00.758Z,18.50
2022-09-09T02:18:42.946Z,19.00
2022-09-09T02:21:33.139Z,18.75
2022-09-09T02:24:08.220Z,18.50
2022-09-09T02:26:43.183Z,17.00
2022-09-09T02:29:16.382Z,17.75
2022-09-09T02:31:49.809Z,14.00
2022-09-09T02:34:23.059Z,18.00
2022-09-09T02:36:56.260Z,16.75
2022-09-09T02:39:26.696Z,18.00
2022-09-09T02:41:57.705Z,18.00
2022-09-09T02:44:28.025Z,16.50
2022-09-09T02:47:16.242Z,18.50
2022-09-09T02:49:49.564Z,18.75
2022-09-09T02:52:22.761Z,17.75
2022-09-09T02:54:55.957Z,19.25
2022-09-09T02:57:29.212Z,19.75
2022-09-09T03:00:02.822Z,18.00
2022-09-09T03:02:33.655Z,20.25
2022-09-09T03:05:04.175Z,20.25
2022-09-09T03:07:34.625Z,21.00
2022-09-09T03:10:05.153Z,21.00
2022-09-09T03:12:35.652Z,22.25
2022-09-09T03:15:12.647Z,23.00
2022-09-09T03:17:44.458Z,25.00
2022-09-09T03:20:14.840Z,22.75
2022-09-09T03:22:45.130Z,23.25
2022-09-09T03:25:15.435Z,26.00
2022-09-09T03:27:45.731Z,29.00
2022-09-09T03:30:16.977Z,28.25
2022-09-09T03:32:49.058Z,28.00
2022-09-09T03:35:19.625Z,29.75
2022-09-09T03:37:50.191Z,30.75
2022-09-09T03:40:20.503Z,29.00
2022-09-09T03:42:51.136Z,28.00
2022-09-09T03:45:21.550Z,29.50
2022-09-09T03:47:52.104Z,27.50
2022-09-09T03:50:22.427Z,29.75
2022-09-09T03:52:52.904Z,31.25
2022-09-09T03:55:23.310Z,30.00
2022-09-09T03:57:53.568Z,28.75
2022-09-09T04:00:23.906Z,31.50
2022-09-09T04:02:54.962Z,33.75
2022-09-09T04:05:25.513Z,33.50
2022-09-09T04:07:55.664Z,33.25
2022-09-09T04:10:25.814Z,32.00
2022-09-09T04:13:00.899Z,31.00
2022-09-09T04:15:31.949Z,33.25
2022-09-09T04:18:03.838Z,28.75
2022-09-09T04:20:34.480Z,32.25
2022-09-09T04:23:04.955Z,32.50
2022-09-09T04:25:36.572Z,31.00
2022-09-09T04:28:07.156Z,31.75
2022-09-09T04:30:37.501Z,34.00
2022-09-09T04:33:08.977Z,32.00
2022-09-09T04:35:40.037Z,33.00
2022-09-09T04:38:10.504Z,34.25
2022-09-09T04:40:42.259Z,35.00
2022-09-09T04:43:14.609Z,33.50
2022-09-09T04:45:46.694Z,35.00
2022-09-09T04:48:17.062Z,33.75
2022-09-09T04:51:02.322Z,33.75
2022-09-09T04:53:35.250Z,36.00
2022-09-09T04:56:11.442Z,34.75
2022-09-09T04:58:42.734Z,33.25
2022-09-09T05:01:18.617Z,33.00
2022-09-09T05:03:49.056Z,34.75
2022-09-09T05:06:21.693Z,34.25
2022-09-09T05:08:52.706Z,34.25
2022-09-09T05:11:29.735Z,31.25
2022-09-09T05:14:00.170Z,31.75
2022-09-09T05:16:51.076Z,31.75
2022-09-09T05:19:21.456Z,31.00
2022-09-09T05:21:51.986Z,29.75
2022-09-09T05:24:22.193Z,30.00
2022-09-09T05:26:52.522Z,29.75
2022-09-09T05:29:22.735Z,27.00
2022-09-09T05:31:53.058Z,26.25
2022-09-09T05:34:23.162Z,26.25
2022-09-09T05:36:53.426Z,21.25
2022-09-09T05:39:26.261Z,21.25
2022-09-09T05:41:56.696Z,23.00
2022-09-09T05:44:27.057Z,23.75
2022-09-09T05:47:01.552Z,22.25
2022-09-09T05:49:32.213Z,25.25
2022-09-09T05:52:03.269Z,27.00
2022-09-09T05:54:34.291Z,29.50
2022-09-09T05:57:04.689Z,28.75
2022-09-09T05:59:35.423Z,26.20
2022-09-09T06:02:06.000Z,26.00
2022-09-09T06:04:37.511Z,21.80
2022-09-09T06:07:11.012Z,23.20
2022-09-09T06:09:42.149Z,20.40
2022-09-09T06:12:13.459Z,21.20
2022-09-09T06:14:46.511Z,20.40
2022-09-09T06:17:19.286Z,19.00
2022-09-09T06:19:50.319Z,20.20
2022-09-09T06:22:20.804Z,16.80
2022-09-09T06:24:51.029Z,14.20
2022-09-09T06:27:21.268Z,18.60
2022-09-09T06:29:51.512Z,18.00
2022-09-09T06:32:23.157Z,19.80
2022-09-09T06:34:54.860Z,13.00
2022-09-09T06:37:25.206Z,9.40
2022-09-09T06:39:55.689Z,10.60
2022-09-09T06:42:28.563Z,12.20
2022-09-09T06:44:59.066Z,10.00
2022-09-09T06:47:30.573Z,10.40
2022-09-09T06:50:00.892Z,10.80
2022-09-09T06:52:31.565Z,11.40
2022-09-09T06:55:02.376Z,11.60
2022-09-09T06:57:39.244Z,7.80
2022-09-09T07:00:10.127Z,9.80
2022-09-09T07:02:40.892Z,11.20
2022-09-09T07:05:11.527Z,9.60
2022-09-09T07:07:42.192Z,11.40
2022-09-09T07:10:12.504Z,12.00
2022-09-09T07:12:44.484Z,9.80
2022-09-09T07:15:15.053Z,8.80
2022-09-09T07:17:45.505Z,10.00
2022-09-09T07:20:16.082Z,13.40
2022-09-09T07:22:46.530Z,10.40
2022-09-09T07:25:17.283Z,8.80
2022-09-09T07:27:48.480Z,9.20
2022-09-09T07:30:23.108Z,9.20
2022-09-09T07:32:53.154Z,9.20
2022-09-09T07:35:23.461Z,10.60
2022-09-09T07:37:57.236Z,8.20
2022-09-09T07:40:29.213Z,9.00
2022-09-09T07:42:59.427Z,8.00
2022-09-09T07:45:29.718Z,9.20
2022-09-09T07:48:00.415Z,15.00
2022-09-09T07:50:31.142Z,10.40
2022-09-09T07:53:05.734Z,9.80
2022-09-09T07:55:34.827Z,11.40
2022-09-09T07:58:05.107Z,9.80
2022-09-09T08:00:35.924Z,10.60
2022-09-09T08:03:09.063Z,11.00
2022-09-09T08:05:39.631Z,10.00
2022-09-09T08:08:10.579Z,11.00
2022-09-09T08:10:41.051Z,12.00
2022-09-09T08:13:19.092Z,12.20
2022-09-09T08:15:45.110Z,10.80
2022-09-09T08:18:15.348Z,11.20
2022-09-09T08:20:45.569Z,12.60
2022-09-09T08:23:15.986Z,10.20
2022-09-09T08:25:46.605Z,12.20
2022-09-09T08:28:16.946Z,10.60
2022-09-09T08:30:47.392Z,12.80
2022-09-09T08:33:17.816Z,9.00
2022-09-09T08:35:54.009Z,8.40
2022-09-09T08:38:24.351Z,10.20
2022-09-09T08:40:58.092Z,9.40
2022-09-09T08:43:31.432Z,9.20
2022-09-09T08:46:10.558Z,8.00
2022-09-09T08:48:46.801Z,10.80
2022-09-09T08:51:17.432Z,7.60
2022-09-09T08:53:50.677Z,9.60
2022-09-09T08:56:26.582Z,8.60
2022-09-09T08:58:59.527Z,10.20
2022-09-09T09:01:58.880Z,10.40
2022-09-09T09:05:13.198Z,11.80
2022-09-09T09:08:30.702Z,11.20
2022-09-09T09:10:54.678Z,11.80
2022-09-09T09:13:48.044Z,11.20
2022-09-09T09:16:34.455Z,12.00
2022-09-09T09:19:19.455Z,12.00
2022-09-09T09:28:00.611Z,10.60
2022-09-09T09:30:45.576Z,10.00
2022-09-09T09:33:27.550Z,12.00
2022-09-09T09:35:57.910Z,8.20
2022-09-09T09:41:01.946Z,9.20
2022-09-09T09:43:37.624Z,11.80
2022-09-09T09:46:20.349Z,11.00
2022-09-09T09:49:05.560Z,11.60
2022-09-09T09:51:36.802Z,11.60
2022-09-09T09:54:28.102Z,9.00
2022-09-09T09:57:19.496Z,11.00
2022-09-09T09:59:52.080Z,10.40
2022-09-09T10:02:25.990Z,10.00
2022-09-09T10:05:13.098Z,11.60
2022-09-09T10:07:48.684Z,8.20
2022-09-09T10:10:27.715Z,10.20
2022-09-09T10:13:21.943Z,11.60
2022-09-09T10:16:21.210Z,9.80
2022-09-09T10:19:16.286Z,8.20
2022-09-09T10:22:13.578Z,10.20
2022-09-09T10:25:19.636Z,11.60
2022-09-09T10:28:13.718Z,11.00
2022-09-09T10:30:50.428Z,11.20
2022-09-09T10:33:38.742Z,12.60
2022-09-09T10:36:23.126Z,12.80
2022-09-09T10:39:07.972Z,11.20
2022-09-09T10:41:42.257Z,11.60
2022-09-09T10:44:24.947Z,11.40
2022-09-09T10:47:20.869Z,10.40
2022-09-09T10:50:00.428Z,12.00
2022-09-09T10:52:54.501Z,11.60
2022-09-09T10:55:29.880Z,13.60
2022-09-09T10:58:02.030Z,12.00
2022-09-09T11:00:47.628Z,8.00
2022-09-09T11:03:20.822Z,11.20
2022-09-09T11:05:56.821Z,11.40
2022-09-09T11:08:29.873Z,12.60
2022-09-09T11:11:09.493Z,14.40
2022-09-09T11:13:57.080Z,12.00
2022-09-09T11:16:43.713Z,12.20
2022-09-09T11:19:34.948Z,12.20
2022-09-09T11:22:28.341Z,11.80
2022-09-09T11:25:01.786Z,13.80
2022-09-09T11:27:46.816Z,12.60
2022-09-09T11:30:55.488Z,13.80
2022-09-09T11:33:22.720Z,13.20
2022-09-09T11:36:12.519Z,12.80
2022-09-09T11:38:48.780Z,12.60
2022-09-09T11:41:21.839Z,11.80
2022-09-09T11:44:12.873Z,12.00
2022-09-09T11:46:43.469Z,14.00
2022-09-09T11:49:31.467Z,13.00
2022-09-09T11:52:04.747Z,12.40
2022-09-09T11:54:38.017Z,12.40
2022-09-09T11:57:11.269Z,12.80
2022-09-09T11:59:44.641Z,11.40
2022-09-09T12:02:18.269Z,11.40
2022-09-09T12:05:12.496Z,11.40
2022-09-09T12:07:55.681Z,15.20
2022-09-09T12:10:37.857Z,11.80
2022-09-09T12:13:20.369Z,10.60
2022-09-09T12:16:00.705Z,13.20
2022-09-09T12:18:39.412Z,9.20
2022-09-09T12:21:24.940Z,13.60
2022-09-09T12:23:58.046Z,13.40
2022-09-09T12:26:37.013Z,14.20
2022-09-09T12:29:21.726Z,13.20
2022-09-09T12:32:13.125Z,13.60
2022-09-09T12:34:52.370Z,11.40
2022-09-09T12:40:52.423Z,10.20
2022-09-09T12:43:25.181Z,11.00
2022-09-09T12:45:58.336Z,13.00
2022-09-09T12:48:32.102Z,11.40
2022-09-09T12:51:02.885Z,12.40
2022-09-09T12:53:37.816Z,12.60
2022-09-09T12:56:11.927Z,14.60
2022-09-09T12:58:45.093Z,11.80
2022-09-09T13:01:32.995Z,10.80
2022-09-09T13:04:03.608Z,11.80
2022-09-09T13:06:35.785Z,10.00
2022-09-09T13:09:08.786Z,10.40
2022-09-09T13:11:43.121Z,9.60
2022-09-09T13:14:43.479Z,11.80
2022-09-09T13:17:28.047Z,12.00
2022-09-09T13:19:59.029Z,10.80
2022-09-09T13:22:32.604Z,12.20
2022-09-09T13:25:17.478Z,9.80
2022-09-09T13:28:03.178Z,13.00
2022-09-09T13:30:38.192Z,11.80
2022-09-09T13:33:14.360Z,11.60
2022-09-09T13:36:03.888Z,12.40
2022-09-09T13:38:53.737Z,13.40
2022-09-09T13:41:27.453Z,13.20
2022-09-09T13:43:58.147Z,12.00
2022-09-09T13:46:37.190Z,13.40
2022-09-09T13:49:13.567Z,13.00
2022-09-09T13:51:55.859Z,13.20
2022-09-09T13:54:26.014Z,13.40
2022-09-09T13:56:56.160Z,13.40
2022-09-09T13:59:54.028Z,13.40
2022-09-09T14:02:00.280Z,17.40
2022-09-09T14:04:30.826Z,13.00
2022-09-09T14:07:01.121Z,7.20
2022-09-09T14:09:31.693Z,16.80
2022-09-09T14:12:02.018Z,13.40
2022-09-09T14:14:32.421Z,13.40
2022-09-09T14:17:07.373Z,14.00
2022-09-09T14:19:35.366Z,13.00
2022-09-09T14:22:08.893Z,14.80
2022-09-09T14:24:39.249Z,13.80
2022-09-09T14:27:09.506Z,13.80
2022-09-09T14:29:39.984Z,15.20
2022-09-09T14:32:12.852Z,16.00
2022-09-09T14:34:43.368Z,19.40
2022-09-09T14:37:14.000Z,18.20
2022-09-09T14:39:45.736Z,17.00
2022-09-09T14:42:16.509Z,16.20
2022-09-09T14:44:47.106Z,15.20
2022-09-09T14:47:17.408Z,15.60
2022-09-09T14:49:48.048Z,17.20
2022-09-09T14:52:18.403Z,16.40
2022-09-09T14:54:49.876Z,14.00
2022-09-09T14:57:24.544Z,14.60
2022-09-09T14:59:56.167Z,10.60
2022-09-09T15:02:28.130Z,14.60
2022-09-09T15:05:10.952Z,15.20
2022-09-09T15:07:41.713Z,19.00
2022-09-09T15:10:12.154Z,16.40
2022-09-09T15:12:42.912Z,20.00
2022-09-09T15:15:16.073Z,19.00
2022-09-09T15:17:46.409Z,22.00
2022-09-09T15:20:19.813Z,20.00
2022-09-09T15:22:50.777Z,22.60
2022-09-09T15:25:21.150Z,22.75
2022-09-09T15:27:54.477Z,22.00
2022-09-09T15:30:24.949Z,23.00
2022-09-09T15:32:55.743Z,22.75
2022-09-09T15:35:27.576Z,22.50
2022-09-09T15:37:58.093Z,24.50
2022-09-09T15:40:28.383Z,27.00
2022-09-09T15:42:58.808Z,24.75
2022-09-09T15:45:29.174Z,24.00
2022-09-09T15:48:00.951Z,22.00
2022-09-09T15:50:31.811Z,20.75
2022-09-09T15:53:02.197Z,20.00
2022-09-09T15:55:32.827Z,20.80
2022-09-09T15:58:04.525Z,22.00
2022-09-09T16:00:34.949Z,21.75
2022-09-09T16:03:05.467Z,21.00
2022-09-09T16:05:36.290Z,17.00
2022-09-09T16:08:06.664Z,19.20
2022-09-09T16:10:37.613Z,18.75
2022-09-09T16:13:09.533Z,21.25
2022-09-09T16:15:40.649Z,21.00
2022-09-09T16:18:10.945Z,20.25
2022-09-09T16:20:42.348Z,19.50
2022-09-09T16:23:12.945Z,21.75
2022-09-09T16:25:43.239Z,24.25
2022-09-09T16:28:16.642Z,22.50
2022-09-09T16:30:49.742Z,22.00
2022-09-09T16:33:20.165Z,20.75
2022-09-09T16:35:50.306Z,16.25
2022-09-09T16:38:20.728Z,19.25
2022-09-09T16:40:51.260Z,19.00
2022-09-09T16:43:23.018Z,19.00
2022-09-09T16:45:53.255Z,17.60
2022-09-09T16:48:24.987Z,15.00
2022-09-09T16:50:56.872Z,16.20
2022-09-09T16:53:27.253Z,13.20
2022-09-09T16:55:57.638Z,14.60
2022-09-09T16:58:28.004Z,13.20
2022-09-09T17:01:02.518Z,11.00
2022-09-09T17:03:33.751Z,11.20
2022-09-09T17:06:06.732Z,13.20
2022-09-09T17:08:37.327Z,14.80
2022-09-09T17:11:18.922Z,15.60
2022-09-09T17:13:50.286Z,14.00
2022-09-09T17:16:22.894Z,11.80
2022-09-09T17:18:54.629Z,7.20
2022-09-09T17:21:29.972Z,14.60
2022-09-09T17:24:00.421Z,12.60
2022-09-09T17:26:34.809Z,12.40
2022-09-09T17:29:06.478Z,13.20
2022-09-09T17:31:37.117Z,11.20
2022-09-09T17:34:09.109Z,10.40
2022-09-09T17:36:40.757Z,19.75
2022-09-09T17:39:12.635Z,37.00
2022-09-09T17:41:43.764Z,22.75
2022-09-09T17:44:14.206Z,14.00
2022-09-09T17:46:45.250Z,16.25
2022-09-09T17:49:18.582Z,14.00
2022-09-09T17:51:49.881Z,11.00
2022-09-09T17:54:23.199Z,13.20
2022-09-09T17:56:54.633Z,12.00
2022-09-09T17:59:26.534Z,41.00
2022-09-09T18:01:57.736Z,16.00
2022-09-09T18:04:32.470Z,13.80
2022-09-09T18:07:02.741Z,14.50
2022-09-09T18:09:33.310Z,16.25
2022-09-09T18:12:03.757Z,15.00
2022-09-09T18:14:44.894Z,15.20
2022-09-09T18:17:27.023Z,10.60
2022-09-09T18:19:57.292Z,10.40
2022-09-09T18:22:30.411Z,10.60
2022-09-09T18:25:03.800Z,11.00
2022-09-09T18:27:39.210Z,15.00
2022-09-09T18:30:10.432Z,12.60
2022-09-09T18:32:44.148Z,14.75
2022-09-09T18:35:14.843Z,14.80
2022-09-09T18:37:47.599Z,10.40
2022-09-09T18:40:18.151Z,12.80
2022-09-09T18:42:48.759Z,14.00
2022-09-09T18:45:25.009Z,13.60
2022-09-09T18:47:55.481Z,13.00
2022-09-09T18:50:25.873Z,12.20
2022-09-09T18:52:59.626Z,11.80
2022-09-09T18:55:30.161Z,15.25
2022-09-09T18:58:05.060Z,11.00
2022-09-09T19:00:35.545Z,11.20
2022-09-09T19:03:08.931Z,7.60
2022-09-09T19:05:41.739Z,10.20
2022-09-09T19:08:12.346Z,80.20
2022-09-09T19:10:42.949Z,19.75
2022-09-09T19:13:18.384Z,17.75
2022-09-09T19:15:57.851Z,8.00
2022-09-09T19:18:27.777Z,11.80
2022-09-09T19:21:16.104Z,11.00
2022-09-09T19:23:57.503Z,9.80
2022-09-09T19:26:34.903Z,9.80
2022-09-09T19:29:05.273Z,7.60
2022-09-09T19:31:36.735Z,7.40
2022-09-09T19:34:09.474Z,9.20
2022-09-09T19:36:41.347Z,10.00
2022-09-09T19:39:11.860Z,9.40
2022-09-09T19:41:44.254Z,9.00
2022-09-09T19:44:17.203Z,9.20
2022-09-09T19:46:48.069Z,10.20
2022-09-09T19:49:21.182Z,9.25
2022-09-09T19:51:51.286Z,9.50
2022-09-09T19:54:21.580Z,7.25
2022-09-09T19:56:52.136Z,9.25
2022-09-09T19:59:22.626Z,11.75
2022-09-09T20:01:53.776Z,10.00
2022-09-09T20:04:24.817Z,12.00
2022-09-09T20:06:55.401Z,13.00
2022-09-09T20:09:25.612Z,12.25
2022-09-09T20:11:56.675Z,10.25
2022-09-09T20:14:27.347Z,10.75
2022-09-09T20:16:57.871Z,10.25
2022-09-09T20:19:28.458Z,10.00
2022-09-09T20:22:00.325Z,10.50
2022-09-09T20:24:30.672Z,13.75
2022-09-09T20:27:00.890Z,10.00
2022-09-09T20:29:33.797Z,8.75
2022-09-09T20:32:07.563Z,9.75
2022-09-09T20:34:38.460Z,12.00
2022-09-09T20:37:08.840Z,6.75
2022-09-09T20:39:43.725Z,9.00
2022-09-09T20:42:17.288Z,10.75
2022-09-09T20:44:51.606Z,7.75
2022-09-09T20:47:21.838Z,7.00
2022-09-09T20:49:52.681Z,9.00
2022-09-09T20:52:23.626Z,7.00
2022-09-09T20:54:53.934Z,9.25
2022-09-09T20:57:24.592Z,7.50
2022-09-09T20:59:57.506Z,10.25
2022-09-09T21:02:27.708Z,7.00
2022-09-09T21:04:57.961Z,7.00
2022-09-09T21:07:29.054Z,7.00
2022-09-09T21:10:01.065Z,6.00
2022-09-09T21:12:31.823Z,6.25
2022-09-09T21:15:02.149Z,7.25
2022-09-09T21:17:34.423Z,6.25
2022-09-09T21:20:05.074Z,7.25
2022-09-09T21:22:35.806Z,6.25
2022-09-09T21:25:07.718Z,6.50
2022-09-09T21:27:38.334Z,5.50
2022-09-09T21:30:09.673Z,6.00
2022-09-09T21:32:40.104Z,7.00
2022-09-09T21:35:10.393Z,7.50
2022-09-09T21:37:40.921Z,7.25
2022-09-09T21:40:11.466Z,7.25
2022-09-09T21:42:42.347Z,6.50
2022-09-09T21:45:13.234Z,7.00
2022-09-09T21:47:45.069Z,6.00
2022-09-09T21:50:15.975Z,7.00
2022-09-09T21:52:46.208Z,5.00
2022-09-09T21:55:16.948Z,5.00
2022-09-09T21:57:47.369Z,4.00
2022-09-09T22:00:17.686Z,6.75
2022-09-09T22:02:48.465Z,4.00
2022-09-09T22:05:18.697Z,6.50
2022-09-09T22:07:49.805Z,6.75
2022-09-09T22:10:21.091Z,4.50
2022-09-09T22:12:51.293Z,4.25
2022-09-09T22:15:22.314Z,4.75
2022-09-09T22:17:52.678Z,6.00
2022-09-09T22:20:22.798Z,6.50
2022-09-09T22:22:52.952Z,6.00
2022-09-09T22:25:23.192Z,5.50
2022-09-09T22:27:53.497Z,4.00
2022-09-09T22:30:23.991Z,6.50
2022-09-09T22:32:54.675Z,4.50
2022-09-09T22:35:25.928Z,6.00
2022-09-09T22:37:56.203Z,6.50
2022-09-09T22:40:26.727Z,3.25
2022-09-09T22:42:57.052Z,4.00
2022-09-09T22:45:27.299Z,5.00
2022-09-09T22:47:57.611Z,6.00
2022-09-09T22:50:27.996Z,5.50
2022-09-09T22:52:58.199Z,5.75
2022-09-09T22:55:28.403Z,4.50
2022-09-09T22:57:59.678Z,6.00
2022-09-09T23:00:29.908Z,6.25
2022-09-09T23:03:00.155Z,5.00
2022-09-09T23:05:30.572Z,6.50
2022-09-09T23:08:00.916Z,4.50
2022-09-09T23:10:32.485Z,5.50
2022-09-09T23:13:02.722Z,5.00
2022-09-09T23:15:34.243Z,6.00
2022-09-09T23:18:04.540Z,4.50
2022-09-09T23:20:35.367Z,7.25
2022-09-09T23:23:05.472Z,6.00
2022-09-09T23:25:36.152Z,5.75
2022-09-09T23:28:06.397Z,6.00
2022-09-09T23:30:39.749Z,5.50
2022-09-09T23:33:10.097Z,5.50
2022-09-09T23:35:40.390Z,5.00
2022-09-09T23:38:11.014Z,4.75
2022-09-09T23:40:41.429Z,4.75
2022-09-09T23:43:11.722Z,6.00
2022-09-09T23:45:42.170Z,4.75
2022-09-09T23:48:12.376Z,5.00
2022-09-09T23:50:43.339Z,5.25
2022-09-09T23:53:13.635Z,5.50
2022-09-09T23:55:44.450Z,4.50
2022-09-09T23:58:14.823Z,5.00
